| time (UTC) | temp C | wind direction | speed KPH | gust KPH | rain 1hr cm | rain 24hr cm | rain mn cm | humidity % | barometer mb |
| 20260510041543 | 11 | 0.0 | 0.0 | 0.00 | 0.30 | 0.00 | 92 | 1011.0 | |
| 20260510040043 | 11 | 0.0 | 0.0 | 0.00 | 0.30 | 0.00 | 92 | 1011.0 | |
| 20260510034541 | 11 | 0.0 | 0.0 | 0.00 | 0.30 | 0.30 | 92 | 1011.0 | |
| 20260510033052 | 11 | 0.0 | 0.0 | 0.00 | 0.30 | 0.30 | 91 | 1011.0 | |
| 20260510031546 | 11 | 0.0 | 0.0 | 0.00 | 0.30 | 0.30 | 91 | 1011.1 | |
| 20260510030037 | 11 | 0.0 | 0.0 | 0.00 | 0.30 | 0.30 | 91 | 1011.1 | |
| 20260510024536 | 12 | 0.0 | 0.0 | 0.00 | 0.30 | 0.30 | 90 | 1010.9 | |
| 20260510023042 | 12 | 0.0 | 0.0 | 0.00 | 0.30 | 0.30 | 90 | 1010.9 | |
| 20260510021634 | 12 | 0.0 | 0.0 | 0.00 | 0.30 | 0.30 | 88 | 1010.8 | |
| 20260510020038 | 12 | 0.0 | 0.0 | 0.00 | 0.30 | 0.30 | 88 | 1010.8 | |
| 20260510014548 | 12 | 0.0 | 0.0 | 0.00 | 0.30 | 0.30 | 86 | 1010.5 | |
| 20260510013036 | 12 | 0.0 | 0.0 | 0.00 | 0.30 | 0.30 | 85 | 1010.5 | |
| 20260510011541 | 12 | 0.0 | 0.0 | 0.00 | 0.30 | 0.30 | 85 | 1010.3 | |
| 20260510010050 | 13 | 0.0 | 0.0 | 0.00 | 0.30 | 0.30 | 84 | 1010.2 | |
| 20260510004542 | 13 | 0.0 | 0.0 | 0.00 | 0.30 | 0.30 | 84 | 1010.1 | |
| 20260510003042 | 13 | 0.0 | 0.0 | 0.00 | 0.30 | 0.30 | 84 | 1010.0 | |
| 20260510001537 | 13 | 0.0 | 0.0 | 0.00 | 0.30 | 0.30 | 83 | 1009.8 | |
| 20260510000037 | 14 | 0.0 | 0.0 | 0.00 | 0.30 | 0.30 | 82 | 1009.7 | |
| 20260509234542 | 14 | 0.0 | 0.0 | 0.00 | 0.30 | 0.30 | 81 | 1009.7 | |
| 20260509233041 | 15 | 0.0 | 0.0 | 0.00 | 0.30 | 0.30 | 80 | 1009.4 | |
| 20260509231544 | 15 | 0.0 | 0.0 | 0.00 | 0.30 | 0.30 | 79 | 1009.5 | |
| 20260509230046 | 15 | 0.0 | 0.0 | 0.00 | 0.30 | 0.30 | 78 | 1009.6 | |
| 20260509224540 | 16 | 0.0 | 0.0 | 0.00 | 0.30 | 0.30 | 77 | 1009.7 | |
| 20260509223038 | 16 | 0.0 | 0.0 | 0.00 | 0.30 | 0.30 | 77 | 1009.6 | |
| 20260509221544 | 16 | 0.0 | 0.0 | 0.00 | 0.30 | 0.30 | 78 | 1009.5 | |
| 20260509220043 | 16 | 0.0 | 0.0 | 0.00 | 0.30 | 0.30 | 77 | 1009.8 | |
| 20260509214542 | 16 | 0.0 | 0.0 | 0.00 | 0.30 | 0.30 | 77 | 1009.9 | |
| 20260509213048 | 15 | 0.0 | 0.0 | 0.00 | 0.30 | 0.30 | 81 | 1010.0 | |
| 20260509211541 | 15 | 0.0 | 0.0 | 0.00 | 0.30 | 0.30 | 80 | 1010.4 | |
| 20260509210049 | 15 | 0.0 | 0.0 | 0.00 | 0.30 | 0.30 | 82 | 1010.4 | |
| 20260509204544 | 14 | 0.0 | 0.0 | 0.00 | 0.30 | 0.30 | 81 | 1009.9 | |
| 20260509203041 | 15 | 0.0 | 0.0 | 0.00 | 0.30 | 0.30 | 82 | 1010.0 | |
| 20260509201541 | 15 | 0.0 | 0.0 | 0.00 | 0.30 | 0.30 | 81 | 1010.0 | |
| 20260509200047 | 15 | 0.0 | 0.0 | 0.00 | 0.30 | 0.30 | 79 | 1010.4 | |
| 20260509194553 | 16 | 0.0 | 0.0 | 0.00 | 0.30 | 0.30 | 79 | 1010.6 | |
| 20260509193036 | 16 | 0.0 | 0.0 | 0.00 | 0.30 | 0.30 | 81 | 1010.6 | |
| 20260509191535 | 15 | 0.0 | 0.0 | 0.00 | 0.30 | 0.30 | 84 | 1010.7 | |
| 20260509190046 | 14 | 0.0 | 0.0 | 0.00 | 0.30 | 0.30 | 84 | 1010.9 | |
| 20260509184541 | 14 | 0.0 | 0.0 | 0.00 | 0.30 | 0.30 | 89 | 1011.0 | |
| 20260509183042 | 13 | 0.0 | 0.0 | 0.00 | 0.30 | 0.30 | 89 | 1011.3 | |
| 20260509181542 | 12 | 0.0 | 0.0 | 0.00 | 0.30 | 0.30 | 89 | 1011.5 | |
| 20260509180052 | 12 | 0.0 | 0.0 | 0.00 | 0.30 | 0.30 | 89 | 1011.5 | |
| 20260509174546 | 12 | 0.0 | 0.0 | 0.00 | 0.30 | 0.30 | 89 | 1011.5 | |
| 20260509173055 | 12 | 0.0 | 0.0 | 0.00 | 0.30 | 0.30 | 87 | 1011.6 | |
| 20260509171543 | 12 | 0.0 | 0.0 | 0.00 | 0.30 | 0.30 | 87 | 1011.8 | |
| 20260509170042 | 12 | 0.0 | 0.0 | 0.03 | 0.30 | 0.30 | 87 | 1011.8 | |
| 20260509164540 | 12 | 0.0 | 0.0 | 0.05 | 0.30 | 0.30 | 88 | 1012.0 | |
| 20260509163037 | 11 | 0.0 | 0.0 | 0.15 | 0.30 | 0.30 | 88 | 1012.0 | |
| 20260509161553 | 11 | 0.0 | 0.0 | 0.25 | 0.30 | 0.30 | 88 | 1011.6 | |
| 20260509160042 | 11 | 0.0 | 0.0 | 0.28 | 0.28 | 0.28 | 88 | 1011.5 | |
| 20260509154546 | 11 | 0.0 | 0.0 | 0.25 | 0.25 | 0.25 | 85 | 1012.1 | |
| 20260509153053 | 12 | 0.0 | 0.0 | 0.15 | 0.15 | 0.15 | 83 | 1012.5 | |
| 20260509151537 | 12 | 0.0 | 0.0 | 0.05 | 0.05 | 0.05 | 82 | 1012.2 | |
| 20260509150037 | 12 | 0.0 | 0.0 | 0.00 | 0.00 | 0.00 | 80 | 1012.5 | |
| 20260509144546 | 13 | 0.0 | 0.0 | 0.00 | 0.00 | 0.00 | 77 | 1012.4 | |
| 20260509143043 | 13 | 0.0 | 0.0 | 0.00 | 0.00 | 0.00 | 74 | 1012.3 | |
| 20260509141543 | 13 | 0.0 | 0.0 | 0.00 | 0.00 | 0.00 | 72 | 1012.0 | |
| 20260509140054 | 13 | 0.0 | 0.0 | 0.00 | 0.00 | 0.00 | 74 | 1011.6 | |
| 20260509134541 | 13 | 0.0 | 0.0 | 0.00 | 0.00 | 0.00 | 76 | 1011.7 | |
| 20260509133041 | 12 | 0.0 | 0.0 | 0.00 | 0.00 | 0.00 | 76 | 1011.3 | |
| 20260509131541 | 12 | 0.0 | 0.0 | 0.00 | 0.00 | 0.00 | 77 | 1011.4 | |
| 20260509130037 | 12 | 0.0 | 0.0 | 0.00 | 0.00 | 0.00 | 78 | 1011.5 | |
| 20260509124549 | 12 | 0.0 | 0.0 | 0.00 | 0.00 | 0.00 | 79 | 1011.6 | |
| 20260509123042 | 12 | 0.0 | 0.0 | 0.00 | 0.00 | 0.00 | 79 | 1011.3 | |
| 20260509121541 | 12 | 0.0 | 0.0 | 0.00 | 0.00 | 0.00 | 81 | 1011.4 | |
| 20260509120038 | 11 | 0.0 | 0.0 | 0.00 | 0.00 | 0.00 | 84 | 1011.2 | |
| 20260509114541 | 11 | 0.0 | 0.0 | 0.00 | 0.00 | 0.00 | 85 | 1011.2 | |
| 20260509113041 | 11 | 0.0 | 0.0 | 0.00 | 0.00 | 0.00 | 85 | 1011.4 | |
| 20260509111541 | 11 | 0.0 | 0.0 | 0.00 | 0.00 | 0.00 | 84 | 1011.1 | |
| 20260509110040 | 11 | 0.0 | 0.0 | 0.00 | 0.00 | 0.00 | 83 | 1011.0 | |
| 20260509104536 | 11 | 0.0 | 0.0 | 0.00 | 0.00 | 0.00 | 84 | 1011.0 | |
| 20260509103038 | 10 | 0.0 | 0.0 | 0.00 | 0.00 | 0.00 | 84 | 1011.0 | |
| 20260509101542 | 10 | 0.0 | 0.0 | 0.00 | 0.00 | 0.00 | 85 | 1010.8 | |
| 20260509100041 | 10 | 0.0 | 0.0 | 0.00 | 0.00 | 0.00 | 84 | 1010.7 | |
| 20260509094553 | 11 | 0.0 | 0.0 | 0.00 | 0.00 | 0.00 | 84 | 1010.6 | |
| 20260509093042 | 11 | 0.0 | 0.0 | 0.00 | 0.00 | 0.00 | 84 | 1010.8 | |
| 20260509091547 | 11 | 0.0 | 0.0 | 0.00 | 0.00 | 0.00 | 84 | 1010.9 | |
| 20260509090053 | 11 | 0.0 | 0.0 | 0.00 | 0.00 | 0.00 | 84 | 1011.0 | |
| 20260509084542 | 11 | 0.0 | 0.0 | 0.00 | 0.00 | 0.00 | 84 | 1011.1 | |
| 20260509083043 | 11 | 0.0 | 0.0 | 0.00 | 0.00 | 0.00 | 83 | 1011.1 | |
| 20260509081541 | 11 | 0.0 | 0.0 | 0.00 | 0.00 | 0.00 | 83 | 1011.3 | |
| 20260509080047 | 11 | 0.0 | 0.0 | 0.00 | 0.00 | 0.00 | 82 | 1011.4 | |
| 20260509074602 | 11 | 0.0 | 0.0 | 0.00 | 0.00 | 0.00 | 82 | 1011.4 | |
| 20260509073100 | 10 | 0.0 | 0.0 | 0.00 | 0.00 | 0.00 | 81 | 1011.5 | |
| 20260509071548 | 10 | 0.0 | 0.0 | 0.00 | 0.00 | 0.00 | 80 | 1011.5 | |
| 20260509070047 | 10 | 0.0 | 0.0 | 0.00 | 0.00 | 0.00 | 79 | 1011.5 | |
| 20260509064541 | 10 | 0.0 | 0.0 | 0.00 | 0.00 | 0.00 | 78 | 1011.5 | |
| 20260509063054 | 11 | 0.0 | 0.0 | 0.00 | 0.00 | 0.00 | 76 | 1011.4 | |
| 20260509061538 | 11 | 0.0 | 0.0 | 0.00 | 0.00 | 0.00 | 76 | 1011.6 | |
| 20260509054542 | 11 | 0.0 | 0.0 | 0.00 | 0.00 | 0.00 | 72 | 1011.8 | |
| 20260509053053 | 11 | 0.0 | 0.0 | 0.00 | 0.00 | 0.00 | 72 | 1012.1 | |
| 20260509051538 | 12 | 0.0 | 0.0 | 0.00 | 0.00 | 0.00 | 67 | 1012.3 | |
| 20260509050041 | 13 | 0.0 | 0.0 | 0.00 | 0.00 | 0.00 | 64 | 1012.3 | |
| 20260509044537 | 13 | 0.0 | 0.0 | 0.00 | 0.00 | 0.00 | 62 | 1012.3 | |
| 20260509043051 | 12 | 0.0 | 0.0 | 0.00 | 0.00 | 0.00 | 65 | 1012.4 |